Terminal Aerodrome Forecast
Issued by NWS

Home | Current Version | Previous Version | Text Only | Print | Product List | Glossary On
Versions: 1 2 3 4 5 6 7 8 9 10 11 12 13 14 15 16 17 18 19 20 21 22 23 24 25 26 27 28 29 30
000
FTUS42 KFFC 221400 AAA
TAFPDK
TAF AMD
KPDK 221402Z 2214/2312 10003KT P6SM SCT015 BKN025
     FM221600 11006KT P6SM VCSH SCT020 BKN035
      TEMPO 2219/2223 5SM -TSRA BR BKN020CB
     FM230000 00000KT P6SM BKN035
     FM230900 00000KT P6SM BKN006=

USA.gov is the U.S. government's official web portal to all federal, state and local government web resources and services.